Fairfield, North Dakota
Current Conditions -  °F | °C
As of 4:56 PM on Monday 20 Oct 2014 (Local Time) from KDIK Reporting Station
Clear Clear  
Wind Chill: 69°   Ceiling: Unl
Heat Index: 69°   Visibility: 10mi
Dew Point: 42°   Wind: 12mph
Humidity: 38%   Direction: 160°SSE
Pressure: 29.88"   Gusts: NA
Location:  47.19°N, 103.23°W
Report Text: KDIK 202256Z AUTO 16010KT 10SM CLR 21/06 A2988 RMK AO2 SLP119 T02060056
Loading
Personal Weather Stations






























Interactive Weather Map
Tropical Storm Tracking
New forecast layout! Learn more

10-Day Weather Forecast

Advertisements
Track Severe Weather on mobile